createdAt,value
2022-08-12T00:02:04.723Z,1.87
2022-08-12T00:04:52.935Z,2.23
2022-08-12T00:07:39.197Z,2.23
2022-08-12T00:10:25.631Z,2.37
2022-08-12T00:13:13.267Z,2.30
2022-08-12T00:16:02.737Z,1.87
2022-08-12T00:18:49.043Z,1.63
2022-08-12T00:21:37.867Z,2.13
2022-08-12T00:24:25.564Z,1.50
2022-08-12T00:27:11.352Z,1.73
2022-08-12T00:29:57.336Z,2.00
2022-08-12T00:32:47.658Z,2.77
2022-08-12T00:35:40.655Z,2.07
2022-08-12T00:38:26.169Z,2.00
2022-08-12T00:41:14.172Z,1.80
2022-08-12T00:43:43.937Z,1.87
2022-08-12T00:46:29.464Z,2.30
2022-08-12T00:48:58.279Z,2.47
2022-08-12T00:51:45.859Z,1.90
2022-08-12T00:54:13.159Z,2.57
2022-08-12T00:56:41.211Z,2.00
2022-08-12T00:59:09.173Z,2.20
2022-08-12T01:02:10.595Z,2.33
2022-08-12T01:04:46.331Z,2.43
2022-08-12T01:07:33.173Z,1.90
2022-08-12T01:10:20.087Z,1.83
2022-08-12T01:13:18.273Z,1.80
2022-08-12T01:15:49.754Z,2.23
2022-08-12T01:18:18.034Z,1.70
2022-08-12T01:20:52.739Z,1.83
2022-08-12T01:23:36.208Z,2.07
2022-08-12T01:26:08.083Z,2.30
2022-08-12T01:28:35.767Z,1.80
2022-08-12T01:31:06.063Z,1.83
2022-08-12T01:33:57.347Z,2.13
2022-08-12T01:36:27.736Z,2.23
2022-08-12T01:38:59.825Z,1.80
2022-08-12T01:41:30.975Z,1.80
2022-08-12T01:44:03.441Z,1.87
2022-08-12T01:46:59.491Z,1.70
2022-08-12T01:49:57.256Z,2.10
2022-08-12T01:52:47.951Z,1.93
2022-08-12T01:55:19.428Z,1.83
2022-08-12T01:58:07.473Z,1.90
2022-08-12T02:00:55.330Z,1.87
2022-08-12T02:03:32.770Z,1.67
2022-08-12T02:06:20.990Z,2.30
2022-08-12T02:09:21.657Z,2.10
2022-08-12T02:11:54.580Z,1.80
2022-08-12T02:14:34.400Z,2.33
2022-08-12T02:17:55.463Z,2.40
2022-08-12T02:20:51.048Z,2.27
2022-08-12T02:23:15.135Z,1.70
2022-08-12T02:25:46.155Z,2.07
2022-08-12T02:28:13.399Z,2.13
2022-08-12T02:30:42.370Z,1.80
2022-08-12T02:33:10.033Z,1.70
2022-08-12T02:35:37.669Z,1.83
2022-08-12T02:38:07.279Z,2.07
2022-08-12T02:40:38.790Z,2.00
2022-08-12T02:43:30.595Z,1.90
2022-08-12T02:46:13.817Z,2.10
2022-08-12T02:48:51.872Z,1.70
2022-08-12T02:51:34.035Z,2.40
2022-08-12T02:54:06.616Z,1.87
2022-08-12T02:56:37.854Z,2.20
2022-08-12T02:59:06.883Z,2.50
2022-08-12T03:01:47.704Z,2.23
2022-08-12T03:04:24.554Z,2.10
2022-08-12T03:07:10.133Z,2.47
2022-08-12T03:10:04.177Z,2.47
2022-08-12T03:12:48.918Z,2.77
2022-08-12T03:15:18.877Z,2.40
2022-08-12T03:18:26.058Z,2.13
2022-08-12T03:20:40.368Z,2.03
2022-08-12T03:23:21.548Z,3.10
2022-08-12T03:25:59.515Z,2.40
2022-08-12T03:28:46.864Z,2.60
2022-08-12T03:31:13.933Z,3.03
2022-08-12T03:34:00.568Z,3.50
2022-08-12T03:36:31.642Z,2.40
2022-08-12T03:39:23.563Z,2.50
2022-08-12T03:42:25.406Z,2.27
2022-08-12T03:45:31.140Z,2.83
2022-08-12T03:48:26.434Z,2.07
2022-08-12T03:51:13.771Z,2.57
2022-08-12T03:53:59.597Z,2.23
2022-08-12T03:56:45.342Z,1.87
2022-08-12T03:59:31.178Z,2.03
2022-08-12T04:01:59.124Z,2.10
2022-08-12T04:04:34.834Z,1.90
2022-08-12T04:07:06.623Z,2.20
2022-08-12T04:09:34.801Z,2.30
2022-08-12T04:12:22.829Z,2.47
2022-08-12T04:14:57.524Z,2.00
2022-08-12T04:17:28.243Z,1.90
2022-08-12T04:19:57.907Z,1.73
2022-08-12T04:22:29.486Z,1.80
2022-08-12T04:25:01.217Z,2.00
2022-08-12T04:27:30.308Z,2.10
2022-08-12T04:30:30.649Z,1.93
2022-08-12T04:32:48.294Z,2.00
2022-08-12T04:35:16.249Z,1.83
2022-08-12T04:37:58.506Z,1.33
2022-08-12T04:40:30.176Z,1.93
2022-08-12T04:42:58.360Z,2.10
2022-08-12T04:45:25.476Z,2.00
2022-08-12T04:47:52.569Z,1.90
2022-08-12T04:50:35.373Z,2.27
2022-08-12T04:53:08.261Z,2.07
2022-08-12T04:55:38.460Z,2.00
2022-08-12T04:58:09.966Z,2.00
2022-08-12T05:00:38.145Z,2.20
2022-08-12T05:03:06.859Z,2.27
2022-08-12T05:05:36.341Z,1.93
2022-08-12T05:08:04.341Z,2.53
2022-08-12T05:10:33.501Z,1.80
2022-08-12T05:13:07.462Z,2.10
2022-08-12T05:15:37.835Z,1.97
2022-08-12T05:18:24.898Z,2.50
2022-08-12T05:20:56.170Z,2.27
2022-08-12T05:23:23.027Z,2.13
2022-08-12T05:25:56.278Z,2.30
2022-08-12T05:28:24.888Z,1.87
2022-08-12T05:30:51.999Z,1.70
2022-08-12T05:33:18.968Z,2.30
2022-08-12T05:35:47.739Z,2.03
2022-08-12T05:38:36.066Z,2.47
2022-08-12T05:41:06.338Z,2.60
2022-08-12T05:43:34.306Z,2.27
2022-08-12T05:46:01.227Z,2.63
2022-08-12T05:48:28.385Z,2.80
2022-08-12T05:50:56.799Z,2.83
2022-08-12T05:53:24.119Z,3.20
2022-08-12T05:55:53.556Z,3.10
2022-08-12T05:58:21.293Z,2.47
2022-08-12T06:00:48.307Z,2.80
2022-08-12T06:03:17.508Z,2.83
2022-08-12T06:05:55.193Z,2.00
2022-08-12T06:08:23.955Z,2.50
2022-08-12T06:10:51.312Z,2.30
2022-08-12T06:13:25.620Z,2.03
2022-08-12T06:15:56.246Z,2.40
2022-08-12T06:18:27.737Z,1.70
2022-08-12T06:21:01.852Z,2.37
2022-08-12T06:23:30.070Z,2.33
2022-08-12T06:25:58.379Z,2.60
2022-08-12T06:28:26.166Z,2.93
2022-08-12T06:31:25.166Z,2.83
2022-08-12T06:33:55.913Z,3.10
2022-08-12T06:36:29.741Z,2.67
2022-08-12T06:38:59.617Z,2.70
2022-08-12T06:42:28.535Z,2.80
2022-08-12T06:44:32.725Z,2.83
2022-08-12T06:47:00.018Z,2.20
2022-08-12T06:49:28.390Z,2.93
2022-08-12T06:51:57.049Z,2.23
2022-08-12T06:54:31.056Z,2.57
2022-08-12T06:57:04.351Z,2.10
2022-08-12T06:59:35.555Z,2.17
2022-08-12T07:02:02.488Z,2.50
2022-08-12T07:04:38.410Z,2.47
2022-08-12T07:07:08.211Z,1.90
2022-08-12T07:10:04.681Z,2.60
2022-08-12T07:12:22.375Z,2.13
2022-08-12T07:14:51.489Z,2.10
2022-08-12T07:17:18.804Z,2.20
2022-08-12T07:19:48.568Z,2.07
2022-08-12T07:22:16.383Z,2.30
2022-08-12T07:24:43.483Z,2.20
2022-08-12T07:27:10.426Z,2.10
2022-08-12T07:29:58.126Z,1.73
2022-08-12T07:32:25.572Z,1.97
2022-08-12T07:34:56.621Z,2.00
2022-08-12T07:37:23.659Z,1.97
2022-08-12T07:39:59.691Z,1.70
2022-08-12T07:42:28.494Z,1.73
2022-08-12T07:44:56.457Z,1.87
2022-08-12T07:47:24.156Z,1.67
2022-08-12T07:50:05.326Z,1.83
2022-08-12T07:52:38.439Z,2.10
2022-08-12T07:55:06.149Z,2.20
2022-08-12T07:57:33.499Z,1.60
2022-08-12T08:00:03.599Z,1.70
2022-08-12T08:02:33.662Z,1.90
2022-08-12T08:05:00.748Z,1.90
2022-08-12T08:07:30.689Z,1.90
2022-08-12T08:10:02.581Z,1.70
2022-08-12T08:12:48.288Z,1.67
2022-08-12T08:15:15.845Z,1.77
2022-08-12T08:17:59.651Z,2.33
2022-08-12T08:20:33.829Z,1.37
2022-08-12T08:23:06.233Z,1.43
2022-08-12T08:25:36.544Z,1.83
2022-08-12T08:28:14.242Z,1.40
2022-08-12T08:30:44.036Z,1.53
2022-08-12T08:33:24.352Z,1.67
2022-08-12T08:36:02.150Z,1.57
2022-08-12T08:38:32.816Z,1.27
2022-08-12T08:42:16.363Z,1.63
2022-08-12T08:44:11.318Z,1.40
2022-08-12T08:46:43.656Z,1.43
2022-08-12T08:49:12.149Z,1.80
2022-08-12T08:51:40.015Z,1.90
2022-08-12T08:54:08.638Z,1.60
2022-08-12T08:56:50.076Z,1.63
2022-08-12T08:59:22.416Z,1.37
2022-08-12T09:01:49.430Z,1.50
2022-08-12T09:05:09.281Z,1.43
2022-08-12T09:07:17.737Z,1.47
2022-08-12T09:12:57.644Z,1.23
2022-08-12T09:15:35.860Z,1.33
2022-08-12T09:18:08.408Z,1.37
2022-08-12T09:20:37.222Z,1.60
2022-08-12T09:23:08.020Z,1.23
2022-08-12T09:25:52.991Z,1.37
2022-08-12T09:28:31.296Z,1.50
2022-08-12T09:30:59.721Z,1.27
2022-08-12T09:34:29.489Z,1.50
2022-08-12T09:36:31.024Z,1.30
2022-08-12T09:40:00.398Z,1.40
2022-08-12T09:42:40.524Z,1.60
2022-08-12T09:45:24.077Z,1.30
2022-08-12T09:48:08.727Z,1.50
2022-08-12T09:50:36.629Z,1.60
2022-08-12T09:53:29.326Z,1.40
2022-08-12T09:56:40.106Z,1.70
2022-08-12T09:59:00.083Z,1.30
2022-08-12T10:01:35.082Z,1.57
2022-08-12T10:04:19.956Z,2.13
2022-08-12T10:06:54.998Z,1.43
2022-08-12T10:09:28.570Z,1.40
2022-08-12T10:12:41.788Z,1.67
2022-08-12T10:16:00.663Z,1.33
2022-08-12T10:18:05.890Z,1.33
2022-08-12T10:20:34.645Z,1.50
2022-08-12T10:23:01.811Z,1.30
2022-08-12T10:26:35.589Z,1.50
2022-08-12T10:29:02.349Z,1.40
2022-08-12T10:32:19.767Z,1.37
2022-08-12T10:34:26.010Z,1.00
2022-08-12T10:37:00.453Z,1.37
2022-08-12T10:40:05.688Z,1.57
2022-08-12T10:43:00.533Z,1.90
2022-08-12T10:45:30.432Z,1.83
2022-08-12T10:48:16.090Z,1.20
2022-08-12T10:51:01.857Z,1.40
2022-08-12T10:53:44.966Z,1.33
2022-08-12T10:56:17.259Z,1.23
2022-08-12T10:58:48.075Z,1.47
2022-08-12T11:01:25.882Z,1.30
2022-08-12T11:04:18.210Z,1.30
2022-08-12T11:07:09.190Z,1.80
2022-08-12T11:09:59.773Z,1.37
2022-08-12T11:12:55.208Z,1.87
2022-08-12T11:15:20.624Z,1.47
2022-08-12T11:17:54.608Z,1.53
2022-08-12T11:20:24.519Z,1.43
2022-08-12T11:23:25.865Z,1.10
2022-08-12T11:25:57.592Z,1.50
2022-08-12T11:28:34.602Z,1.60
2022-08-12T11:31:05.705Z,2.00
2022-08-12T11:34:04.503Z,1.93
2022-08-12T11:36:22.097Z,1.57
2022-08-12T11:38:51.025Z,1.67
2022-08-12T11:41:31.216Z,1.47
2022-08-12T11:44:35.116Z,1.30
2022-08-12T11:46:53.006Z,1.03
2022-08-12T11:49:31.005Z,1.80
2022-08-12T11:51:59.027Z,1.57
2022-08-12T11:54:25.946Z,1.73
2022-08-12T11:57:00.303Z,1.47
2022-08-12T12:02:01.176Z,1.50
2022-08-12T12:02:20.699Z,1.93
2022-08-12T12:04:52.090Z,1.57
2022-08-12T12:07:22.640Z,1.50
2022-08-12T12:10:01.457Z,1.60
2022-08-12T12:12:28.303Z,1.50
2022-08-12T12:14:55.981Z,1.37
2022-08-12T12:17:38.509Z,1.53
2022-08-12T12:20:11.604Z,1.50
2022-08-12T12:22:41.067Z,1.43
2022-08-12T12:25:13.590Z,1.20
2022-08-12T12:28:05.041Z,1.23
2022-08-12T12:30:34.926Z,1.50
2022-08-12T12:33:02.072Z,1.47
2022-08-12T12:36:06.232Z,1.33
2022-08-12T12:38:17.532Z,1.07
2022-08-12T12:40:50.496Z,1.20
2022-08-12T12:43:29.053Z,1.30
2022-08-12T12:46:05.594Z,1.43
2022-08-12T12:48:32.854Z,1.33
2022-08-12T12:51:22.135Z,1.37
2022-08-12T12:54:08.653Z,1.40
2022-08-12T12:56:40.549Z,1.73
2022-08-12T12:59:54.417Z,1.40
2022-08-12T13:01:55.454Z,1.10
2022-08-12T13:04:22.583Z,1.20
2022-08-12T13:06:52.194Z,1.10
2022-08-12T13:09:22.331Z,1.50
2022-08-12T13:11:53.498Z,1.30
2022-08-12T13:14:28.736Z,1.20
2022-08-12T13:17:02.760Z,1.30
2022-08-12T13:19:38.904Z,1.50
2022-08-12T13:22:23.742Z,1.67
2022-08-12T13:24:56.042Z,1.17
2022-08-12T13:27:48.285Z,1.50
2022-08-12T13:30:23.835Z,1.07
2022-08-12T13:33:00.129Z,1.00
2022-08-12T13:36:05.112Z,1.20
2022-08-12T13:38:35.195Z,1.17
2022-08-12T13:41:03.898Z,1.33
2022-08-12T13:43:41.006Z,1.10
2022-08-12T13:46:11.964Z,1.23
2022-08-12T13:48:45.008Z,1.20
2022-08-12T13:51:13.155Z,1.10
2022-08-12T13:53:59.099Z,1.23
2022-08-12T13:56:33.490Z,1.30
2022-08-12T13:59:08.044Z,1.57
2022-08-12T14:01:40.670Z,1.57
2022-08-12T14:04:11.424Z,1.53
2022-08-12T14:06:44.769Z,1.60
2022-08-12T14:09:15.450Z,1.80
2022-08-12T14:11:58.930Z,1.47
2022-08-12T14:14:31.663Z,1.50
2022-08-12T14:17:05.620Z,1.33
2022-08-12T14:19:37.939Z,3.13
2022-08-12T14:22:06.807Z,2.67
2022-08-12T14:24:40.739Z,2.40
2022-08-12T14:27:10.310Z,1.87
2022-08-12T14:30:05.739Z,2.70
2022-08-12T14:32:40.029Z,2.80
2022-08-12T14:35:09.540Z,3.57
2022-08-12T14:37:56.604Z,3.43
2022-08-12T14:40:28.487Z,3.00
2022-08-12T14:42:57.502Z,2.40
2022-08-12T14:45:44.470Z,1.70
2022-08-12T14:48:13.339Z,1.73
2022-08-12T14:51:02.821Z,1.60
2022-08-12T14:59:56.528Z,1.77
2022-08-12T15:02:20.731Z,1.20
2022-08-12T15:04:55.942Z,1.10
2022-08-12T15:07:34.453Z,1.57
2022-08-12T15:10:10.171Z,1.73
2022-08-12T15:12:40.593Z,1.40
2022-08-12T15:15:09.046Z,1.50
2022-08-12T15:17:38.749Z,1.67
2022-08-12T15:20:28.011Z,1.60
2022-08-12T15:22:55.583Z,1.50
2022-08-12T15:25:22.821Z,1.50
2022-08-12T15:28:04.235Z,1.33
2022-08-12T15:30:40.199Z,1.17
2022-08-12T15:33:12.637Z,1.40
2022-08-12T15:35:50.234Z,1.23
2022-08-12T15:38:24.718Z,0.97
2022-08-12T15:40:53.515Z,1.30
2022-08-12T15:43:51.123Z,1.40
2022-08-12T15:46:15.454Z,1.50
2022-08-12T15:48:46.756Z,1.90
2022-08-12T15:51:57.556Z,2.30
2022-08-12T15:54:33.472Z,1.83
2022-08-12T15:57:07.634Z,1.63
2022-08-12T16:00:00.099Z,2.03
2022-08-12T16:02:26.702Z,2.23
2022-08-12T16:04:54.424Z,3.00
2022-08-12T16:07:30.150Z,1.83
2022-08-12T16:10:06.789Z,1.67
2022-08-12T16:12:55.127Z,2.27
2022-08-12T16:15:24.914Z,1.90
2022-08-12T16:18:17.850Z,2.10
2022-08-12T16:20:41.545Z,1.63
2022-08-12T16:23:50.928Z,2.57
2022-08-12T16:26:06.047Z,2.43
2022-08-12T16:28:41.160Z,1.83
2022-08-12T16:31:13.334Z,2.30
2022-08-12T16:33:59.849Z,1.90
2022-08-12T16:36:29.534Z,1.40
2022-08-12T16:38:56.734Z,1.80
2022-08-12T16:41:24.178Z,1.50
2022-08-12T16:43:53.495Z,1.30
2022-08-12T16:46:31.639Z,2.10
2022-08-12T16:49:09.188Z,1.73
2022-08-12T16:51:46.500Z,1.70
2022-08-12T16:54:19.028Z,1.50
2022-08-12T16:56:50.701Z,1.37
2022-08-12T16:59:22.621Z,1.60
2022-08-12T17:01:51.653Z,1.33
2022-08-12T17:04:18.915Z,1.27
2022-08-12T17:06:48.022Z,1.57
2022-08-12T17:09:17.376Z,1.23
2022-08-12T17:11:46.801Z,1.33
2022-08-12T17:14:16.299Z,1.10
2022-08-12T17:16:45.671Z,1.40
2022-08-12T17:19:16.755Z,1.43
2022-08-12T17:22:01.363Z,1.47
2022-08-12T17:24:32.559Z,1.60
2022-08-12T17:27:09.736Z,1.50
2022-08-12T17:30:02.927Z,1.23
2022-08-12T17:32:33.694Z,1.50
2022-08-12T17:35:20.495Z,1.40
2022-08-12T17:37:48.674Z,1.77
2022-08-12T17:40:34.320Z,1.53
2022-08-12T17:43:56.950Z,1.40
2022-08-12T17:45:59.944Z,1.70
2022-08-12T17:48:34.432Z,1.63
2022-08-12T17:51:07.146Z,1.60
2022-08-12T17:54:05.865Z,1.70
2022-08-12T17:56:27.813Z,1.63
2022-08-12T17:59:00.470Z,1.87
2022-08-12T18:01:29.402Z,1.37
2022-08-12T18:04:21.993Z,1.83
2022-08-12T18:06:51.971Z,1.53
2022-08-12T18:09:20.649Z,1.20
2022-08-12T18:12:08.313Z,1.60
2022-08-12T18:14:37.985Z,1.40
2022-08-12T18:17:08.551Z,1.70
2022-08-12T18:20:04.906Z,1.70
2022-08-12T18:22:31.760Z,1.50
2022-08-12T18:25:37.901Z,1.80
2022-08-12T18:28:01.999Z,1.63
2022-08-12T18:30:52.828Z,1.80
2022-08-12T18:33:25.344Z,2.40
2022-08-12T18:35:55.317Z,2.40
2022-08-12T18:38:25.361Z,2.30
2022-08-12T18:41:21.042Z,1.60
2022-08-12T18:44:00.786Z,1.70
2022-08-12T18:46:48.959Z,1.70
2022-08-12T18:49:38.697Z,2.20
2022-08-12T18:52:08.109Z,2.30
2022-08-12T18:54:48.943Z,2.10
2022-08-12T18:58:05.739Z,1.77
2022-08-12T19:00:15.991Z,1.50
2022-08-12T19:02:44.792Z,1.77
2022-08-12T19:05:17.563Z,2.20
2022-08-12T19:08:00.795Z,2.00
2022-08-12T19:10:30.736Z,1.60
2022-08-12T19:13:23.216Z,1.60
2022-08-12T19:15:58.237Z,1.67
2022-08-12T19:18:30.912Z,1.90
2022-08-12T19:21:06.629Z,1.53
2022-08-12T19:23:39.288Z,1.50
2022-08-12T19:26:10.787Z,2.20
2022-08-12T19:28:40.166Z,1.90
2022-08-12T19:31:57.406Z,1.70
2022-08-12T19:34:50.470Z,1.77
2022-08-12T19:37:16.561Z,1.80
2022-08-12T19:40:08.143Z,1.50
2022-08-12T19:42:32.616Z,2.00
2022-08-12T19:45:05.207Z,1.60
2022-08-12T19:47:39.153Z,1.67
2022-08-12T19:50:06.886Z,1.83
2022-08-12T19:52:40.885Z,1.50
2022-08-12T19:55:17.932Z,1.90
2022-08-12T19:58:03.016Z,1.83
2022-08-12T20:00:31.938Z,1.40
2022-08-12T20:03:02.987Z,1.60
2022-08-12T20:06:05.029Z,2.17
2022-08-12T20:08:34.441Z,1.80
2022-08-12T20:12:09.598Z,1.90
2022-08-12T20:14:00.795Z,1.77
2022-08-12T20:16:51.794Z,1.50
2022-08-12T20:19:17.018Z,1.37
2022-08-12T20:21:44.520Z,1.70
2022-08-12T20:24:14.429Z,1.43
2022-08-12T20:26:42.998Z,1.70
2022-08-12T20:29:13.691Z,1.57
2022-08-12T20:31:41.468Z,1.67
2022-08-12T20:34:12.469Z,1.93
2022-08-12T20:36:44.244Z,1.83
2022-08-12T20:39:37.101Z,1.90
2022-08-12T20:42:07.421Z,1.87
2022-08-12T20:44:39.664Z,2.40
2022-08-12T20:47:18.525Z,1.97
2022-08-12T20:49:55.995Z,1.90
2022-08-12T20:52:29.148Z,1.60
2022-08-12T20:54:58.228Z,1.87
2022-08-12T20:57:37.723Z,2.10
2022-08-12T21:00:14.281Z,1.87
2022-08-12T21:02:49.826Z,1.70
2022-08-12T21:06:12.138Z,1.93
2022-08-12T21:08:26.603Z,2.20
2022-08-12T21:10:55.429Z,1.97
2022-08-12T21:13:27.093Z,1.80
2022-08-12T21:15:59.766Z,2.20
2022-08-12T21:18:30.574Z,2.07
2022-08-12T21:20:59.114Z,1.97
2022-08-12T21:23:30.939Z,2.30
2022-08-12T21:26:12.259Z,1.90
2022-08-12T21:28:58.063Z,1.73
2022-08-12T21:32:37.809Z,1.80
2022-08-12T21:34:19.772Z,2.20
2022-08-12T21:36:50.338Z,2.40
2022-08-12T21:39:35.453Z,2.37
2022-08-12T21:42:06.920Z,2.40
2022-08-12T21:45:48.334Z,1.93
2022-08-12T21:47:23.959Z,2.20
2022-08-12T21:50:03.325Z,2.30
2022-08-12T21:52:36.346Z,1.80
2022-08-12T21:55:08.111Z,1.93
2022-08-12T21:57:51.041Z,1.97
2022-08-12T22:00:31.744Z,1.83
2022-08-12T22:03:54.959Z,2.13
2022-08-12T22:06:31.396Z,1.90
2022-08-12T22:09:15.214Z,2.00
2022-08-12T22:11:49.056Z,2.20
2022-08-12T22:14:24.517Z,2.17
2022-08-12T22:16:53.780Z,2.03
2022-08-12T22:19:22.622Z,2.20
2022-08-12T22:21:54.568Z,2.40
2022-08-12T22:24:26.830Z,1.70
2022-08-12T22:27:32.520Z,1.70
2022-08-12T22:30:19.607Z,1.80
2022-08-12T22:32:51.692Z,2.57
2022-08-12T22:35:47.344Z,1.93
2022-08-12T22:38:26.687Z,1.83
2022-08-12T22:41:34.794Z,1.43
2022-08-12T22:44:21.295Z,1.60
2022-08-12T22:46:54.092Z,2.00
2022-08-12T22:49:36.990Z,2.23
2022-08-12T22:52:18.310Z,2.20
2022-08-12T22:55:02.523Z,2.50
2022-08-12T22:57:54.088Z,2.20
2022-08-12T23:00:27.110Z,2.30
2022-08-12T23:02:58.489Z,2.37
2022-08-12T23:05:57.611Z,2.00
2022-08-12T23:08:17.572Z,2.63
2022-08-12T23:10:46.528Z,1.90
2022-08-12T23:13:43.241Z,2.07
2022-08-12T23:16:18.300Z,2.10
2022-08-12T23:19:01.485Z,2.13
2022-08-12T23:22:03.371Z,1.90
2022-08-12T23:24:26.651Z,1.70
2022-08-12T23:27:13.020Z,2.17
2022-08-12T23:29:43.208Z,2.13
2022-08-12T23:32:35.266Z,2.13
2022-08-12T23:35:03.482Z,2.10
2022-08-12T23:37:46.473Z,2.30
2022-08-12T23:40:17.810Z,2.17
2022-08-12T23:42:45.360Z,2.90
2022-08-12T23:45:20.903Z,2.10
2022-08-12T23:48:00.029Z,1.87
2022-08-12T23:50:33.896Z,2.10
2022-08-12T23:53:06.415Z,2.40
2022-08-12T23:55:40.943Z,2.33
2022-08-12T23:58:22.449Z,2.27
